• Join FlightAware (Why Join?)
  • Login
  • US Flag 
01:53PM EDT


 

Airport Tracker/Info


-or-


 

Live Flight TrackerFlight Track Log ✈ RPA3196 ✈ 13-May-2013 ✈ KPHL - KBTV

Flight Track Log - Related Links

Times and Time Zones

All times are in EDT time to prevent confusion due to time zone crossing. See the RPA3196 flight status page for this flight to view local times or setup timezone preferences in your user account.

Time Position Orientation Groundspeed Altitude Reporting Facility
EDT Latitude Longitude Course Direction KTS MPH feet Rate Location/Type
09:34AM 39.8667 -75.2833 37° Northeast 160 184 600  Level Philadelphia TRACON
09:36AM 39.7756 -75.3222 198° South 241 277 4,600 2,520 Climbing New York Center
09:37AM 39.8167 -74.8868 90° East  Level FlightAware Approximate
09:37AM 39.7708 -75.2272 94° East 288 331 7,500  Level New York Center
09:38AM 39.7972 -74.7692 105° East  Level FlightAware Approximate
09:38AM 39.7667 -75.1000 92° East 320 368 10,600  Level Philadelphia TRACON
09:39AM 39.8134 -74.6699 37° Northeast  Level FlightAware Approximate
09:40AM 39.8871 -74.5963 37° Northeast  Level FlightAware Approximate
09:40AM 39.7839 -74.8717 84° East 405 466 12,000  Level New York Center
09:41AM 39.8078 -74.7189 78° East 405 466 13,700 2,040 Climbing New York Center
09:42AM 39.8881 -74.6261 42° Northeast 366 421 16,100 2,040 Climbing New York Center
09:43AM 39.9806 -74.5364 37° Northeast 379 436 17,800 1,620 Climbing New York Center
09:44AM 40.0644 -74.4514 38° Northeast 404 465 19,400 1,680 Climbing New York Center
09:45AM 40.1742 -74.3431 37° Northeast 438 504 21,300 1,740 Climbing New York Center
09:46AM 40.2794 -74.2397 37° Northeast 460 529 22,900 1,440 Climbing New York Center
09:47AM 40.3758 -74.1439 37° Northeast 481 554 24,200 1,320 Climbing New York Center
09:48AM 40.5058 -74.0492 29° Northeast 486 559 25,700 960 Climbing New York Center
09:50AM 40.7403 -73.9083 24° Northeast 482 555 27,000 420 Climbing Boston Center
09:51AM 40.8700 -73.8756 11° North 474 545 27,000  Level Boston Center
09:52AM 41.0058 -73.8428 10° North 480 552 27,000  Level Boston Center
09:53AM 41.1417 -73.8181 North 487 560 27,000  Level Boston Center
09:54AM 41.2772 -73.7936 North 487 560 27,000  Level Boston Center
09:55AM 41.4089 -73.7658 North 482 555 27,000  Level Boston Center
09:56AM 41.5447 -73.7408 North 482 555 27,000  Level Boston Center
09:57AM 41.6783 -73.7131 North 482 555 27,000  Level Boston Center
09:58AM 41.7975 -73.6933 North 487 560 27,000  Level Boston Center
09:59AM 41.9289 -73.6708 North 480 552 27,000  Level Boston Center
10:00AM 42.0794 -73.6372 North 490 564 27,000  Level Boston Center
10:01AM 42.2131 -73.6117 North 490 564 27,000  Level Boston Center
10:02AM 42.3156 -73.5856 11° North 485 558 27,000  Level Boston Center
10:03AM 42.4614 -73.5658 North 480 552 27,000  Level Boston Center
10:04AM 42.5931 -73.5400 North 480 552 27,000  Level Boston Center
10:05AM 42.7267 -73.5142 North 480 552 27,000  Level Boston Center
10:06AM 42.8667 -73.4825 North 473 544 27,000  Level Boston Center
10:07AM 42.9836 -73.4589 North 466 536 27,000  Level Boston Center
10:08AM 43.1297 -73.4272 North 471 542 27,000 -480 Level Boston Center
10:09AM 43.2444 -73.4064 North 471 542 26,100 -1,500 Descending Boston Center
10:10AM 43.3678 -73.3797 North 465 535 24,000 -1,980 Descending Boston Center
10:11AM 43.4889 -73.3558 North 452 520 22,200 -2,460 Descending Boston Center
10:12AM 43.6056 -73.3289 North 435 501 19,100 -2,940 Descending Boston Center
10:13AM 43.7308 -73.3078 North 423 487 16,400 -2,460 Descending Boston Center
10:14AM 43.8331 -73.2861 North 385 443 14,200 -2,160 Descending Boston Center
10:15AM 43.9311 -73.2675 North 368 423 12,100 -1,680 Descending Boston Center
10:16AM 44.0189 -73.2483 North 338 389 10,900 -1,500 Descending Boston Center
10:17AM 44.0836 -73.2350 North 314 361 9,100 -2,400 Descending Boston Center
10:18AM 44.1692 -73.2186 North 281 323 6,100 -2,700 Descending Boston Center
10:19AM 44.2400 -73.2022 North 267 307 3,800 -1,200 Descending Boston Center
10:20AM 44.2967 -73.1536 32° Northeast 245 282 3,700  Descending Boston Center
10:21AM 44.3469 -73.1047 35° Northeast 225 259 3,800 60 Climbing Boston Center